sensor_id;sensor_type;location;lat;lon;timestamp;P1;durP1;ratioP1;P2;durP2;ratioP2
27792;SDS011;15174;48.190;11.462;2024-03-02T00:00:34;24.30;;;13.23;;
27792;SDS011;15174;48.190;11.462;2024-03-02T00:03:01;23.80;;;11.88;;
27792;SDS011;15174;48.190;11.462;2024-03-02T00:05:28;25.33;;;12.05;;
27792;SDS011;15174;48.190;11.462;2024-03-02T00:07:56;19.87;;;11.57;;
27792;SDS011;15174;48.190;11.462;2024-03-02T00:10:27;25.65;;;11.85;;
27792;SDS011;15174;48.190;11.462;2024-03-02T00:13:05;22.02;;;12.30;;
27792;SDS011;15174;48.190;11.462;2024-03-02T00:17:59;20.80;;;12.15;;
27792;SDS011;15174;48.190;11.462;2024-03-02T00:20:26;22.73;;;11.77;;
27792;SDS011;15174;48.190;11.462;2024-03-02T00:22:55;21.95;;;12.18;;
27792;SDS011;15174;48.190;11.462;2024-03-02T00:25:26;19.73;;;11.57;;
27792;SDS011;15174;48.190;11.462;2024-03-02T00:27:52;18.92;;;11.13;;
27792;SDS011;15174;48.190;11.462;2024-03-02T00:33:05;22.20;;;11.60;;
27792;SDS011;15174;48.190;11.462;2024-03-02T00:35:32;17.40;;;11.25;;
27792;SDS011;15174;48.190;11.462;2024-03-02T00:38:02;21.95;;;11.80;;
27792;SDS011;15174;48.190;11.462;2024-03-02T00:40:29;21.27;;;11.75;;
27792;SDS011;15174;48.190;11.462;2024-03-02T00:42:55;19.73;;;11.13;;
27792;SDS011;15174;48.190;11.462;2024-03-02T00:45:21;20.45;;;11.70;;
27792;SDS011;15174;48.190;11.462;2024-03-02T00:50:15;20.27;;;10.85;;
27792;SDS011;15174;48.190;11.462;2024-03-02T00:52:41;18.92;;;10.38;;
27792;SDS011;15174;48.190;11.462;2024-03-02T00:55:07;23.20;;;11.60;;
27792;SDS011;15174;48.190;11.462;2024-03-02T00:57:34;21.20;;;12.05;;
27792;SDS011;15174;48.190;11.462;2024-03-02T01:00:00;18.48;;;10.70;;
27792;SDS011;15174;48.190;11.462;2024-03-02T01:02:26;20.45;;;11.07;;
27792;SDS011;15174;48.190;11.462;2024-03-02T01:04:54;20.02;;;11.05;;
27792;SDS011;15174;48.190;11.462;2024-03-02T01:07:20;21.20;;;11.65;;
27792;SDS011;15174;48.190;11.462;2024-03-02T01:09:46;19.80;;;11.13;;
27792;SDS011;15174;48.190;11.462;2024-03-02T01:12:12;22.90;;;12.80;;
27792;SDS011;15174;48.190;11.462;2024-03-02T01:14:38;23.08;;;11.55;;
27792;SDS011;15174;48.190;11.462;2024-03-02T01:17:04;20.98;;;11.98;;
27792;SDS011;15174;48.190;11.462;2024-03-02T01:19:30;21.80;;;12.32;;
27792;SDS011;15174;48.190;11.462;2024-03-02T01:21:56;23.50;;;12.32;;
27792;SDS011;15174;48.190;11.462;2024-03-02T01:24:22;21.33;;;11.68;;
27792;SDS011;15174;48.190;11.462;2024-03-02T01:26:48;23.33;;;12.15;;
27792;SDS011;15174;48.190;11.462;2024-03-02T01:29:14;20.08;;;11.43;;
27792;SDS011;15174;48.190;11.462;2024-03-02T01:31:40;24.35;;;12.20;;
27792;SDS011;15174;48.190;11.462;2024-03-02T01:34:10;20.40;;;11.52;;
27792;SDS011;15174;48.190;11.462;2024-03-02T01:36:37;21.92;;;11.43;;
27792;SDS011;15174;48.190;11.462;2024-03-02T01:39:03;23.75;;;11.55;;
27792;SDS011;15174;48.190;11.462;2024-03-02T01:41:34;27.17;;;12.10;;
27792;SDS011;15174;48.190;11.462;2024-03-02T01:44:00;21.73;;;11.43;;
27792;SDS011;15174;48.190;11.462;2024-03-02T01:46:26;22.92;;;11.35;;
27792;SDS011;15174;48.190;11.462;2024-03-02T01:48:52;20.55;;;11.23;;
27792;SDS011;15174;48.190;11.462;2024-03-02T01:51:18;18.92;;;11.10;;
27792;SDS011;15174;48.190;11.462;2024-03-02T01:53:44;21.15;;;11.77;;
27792;SDS011;15174;48.190;11.462;2024-03-02T01:56:13;27.75;;;12.57;;
27792;SDS011;15174;48.190;11.462;2024-03-02T01:58:39;23.38;;;12.63;;
27792;SDS011;15174;48.190;11.462;2024-03-02T02:01:05;22.50;;;11.88;;
27792;SDS011;15174;48.190;11.462;2024-03-02T02:03:31;20.60;;;11.75;;
27792;SDS011;15174;48.190;11.462;2024-03-02T02:05:57;18.55;;;10.75;;
27792;SDS011;15174;48.190;11.462;2024-03-02T02:08:24;23.50;;;11.50;;
27792;SDS011;15174;48.190;11.462;2024-03-02T02:10:50;19.50;;;10.30;;
27792;SDS011;15174;48.190;11.462;2024-03-02T02:13:16;18.95;;;11.43;;
27792;SDS011;15174;48.190;11.462;2024-03-02T02:15:43;21.63;;;11.77;;
27792;SDS011;15174;48.190;11.462;2024-03-02T02:18:09;20.52;;;11.27;;
27792;SDS011;15174;48.190;11.462;2024-03-02T02:20:36;21.10;;;11.90;;
27792;SDS011;15174;48.190;11.462;2024-03-02T02:23:03;21.05;;;11.73;;
27792;SDS011;15174;48.190;11.462;2024-03-02T02:25:34;20.20;;;11.55;;
27792;SDS011;15174;48.190;11.462;2024-03-02T02:28:00;19.58;;;10.80;;
27792;SDS011;15174;48.190;11.462;2024-03-02T02:30:28;19.27;;;10.75;;
27792;SDS011;15174;48.190;11.462;2024-03-02T02:32:55;19.75;;;11.63;;
27792;SDS011;15174;48.190;11.462;2024-03-02T02:35:21;22.13;;;12.30;;
27792;SDS011;15174;48.190;11.462;2024-03-02T02:37:49;16.10;;;10.48;;
27792;SDS011;15174;48.190;11.462;2024-03-02T02:40:17;25.10;;;12.10;;
27792;SDS011;15174;48.190;11.462;2024-03-02T02:42:44;21.05;;;11.25;;
27792;SDS011;15174;48.190;11.462;2024-03-02T02:45:10;19.65;;;10.45;;
27792;SDS011;15174;48.190;11.462;2024-03-02T02:47:38;20.98;;;11.95;;
27792;SDS011;15174;48.190;11.462;2024-03-02T02:50:04;19.05;;;10.35;;
27792;SDS011;15174;48.190;11.462;2024-03-02T02:52:36;17.63;;;10.85;;
27792;SDS011;15174;48.190;11.462;2024-03-02T02:55:04;20.65;;;11.40;;
27792;SDS011;15174;48.190;11.462;2024-03-02T02:57:31;17.50;;;10.82;;
27792;SDS011;15174;48.190;11.462;2024-03-02T03:00:00;20.25;;;12.02;;
27792;SDS011;15174;48.190;11.462;2024-03-02T03:02:30;21.17;;;11.55;;
27792;SDS011;15174;48.190;11.462;2024-03-02T03:04:56;24.25;;;12.15;;
27792;SDS011;15174;48.190;11.462;2024-03-02T03:07:22;21.45;;;11.38;;
27792;SDS011;15174;48.190;11.462;2024-03-02T03:09:49;23.73;;;12.07;;
27792;SDS011;15174;48.190;11.462;2024-03-02T03:12:15;21.90;;;12.23;;
27792;SDS011;15174;48.190;11.462;2024-03-02T03:14:41;20.13;;;11.77;;
27792;SDS011;15174;48.190;11.462;2024-03-02T03:17:07;20.17;;;11.07;;
27792;SDS011;15174;48.190;11.462;2024-03-02T03:19:33;20.00;;;11.77;;
27792;SDS011;15174;48.190;11.462;2024-03-02T03:21:59;23.90;;;12.98;;
27792;SDS011;15174;48.190;11.462;2024-03-02T03:24:25;21.80;;;11.10;;
27792;SDS011;15174;48.190;11.462;2024-03-02T03:26:51;22.38;;;11.60;;
27792;SDS011;15174;48.190;11.462;2024-03-02T03:29:17;20.88;;;12.30;;
27792;SDS011;15174;48.190;11.462;2024-03-02T03:31:43;24.95;;;13.07;;
27792;SDS011;15174;48.190;11.462;2024-03-02T03:34:09;24.80;;;12.50;;
27792;SDS011;15174;48.190;11.462;2024-03-02T03:36:37;23.63;;;13.10;;
27792;SDS011;15174;48.190;11.462;2024-03-02T03:39:03;24.52;;;13.18;;
27792;SDS011;15174;48.190;11.462;2024-03-02T03:41:31;22.98;;;13.18;;
27792;SDS011;15174;48.190;11.462;2024-03-02T03:43:57;23.38;;;13.85;;
27792;SDS011;15174;48.190;11.462;2024-03-02T03:46:23;26.27;;;13.00;;
27792;SDS011;15174;48.190;11.462;2024-03-02T03:48:49;25.38;;;14.40;;
27792;SDS011;15174;48.190;11.462;2024-03-02T03:51:15;27.00;;;14.10;;
27792;SDS011;15174;48.190;11.462;2024-03-02T03:53:41;22.92;;;13.27;;
27792;SDS011;15174;48.190;11.462;2024-03-02T03:56:07;26.17;;;14.15;;
27792;SDS011;15174;48.190;11.462;2024-03-02T03:58:33;28.77;;;15.32;;
27792;SDS011;15174;48.190;11.462;2024-03-02T04:00:59;22.67;;;12.63;;
27792;SDS011;15174;48.190;11.462;2024-03-02T04:03:26;25.75;;;14.57;;
27792;SDS011;15174;48.190;11.462;2024-03-02T04:05:52;25.88;;;13.88;;
27792;SDS011;15174;48.190;11.462;2024-03-02T04:08:18;27.25;;;14.18;;
27792;SDS011;15174;48.190;11.462;2024-03-02T04:10:46;26.38;;;14.98;;
27792;SDS011;15174;48.190;11.462;2024-03-02T04:15:38;24.75;;;13.50;;
27792;SDS011;15174;48.190;11.462;2024-03-02T04:18:05;26.13;;;13.98;;
27792;SDS011;15174;48.190;11.462;2024-03-02T04:20:31;24.70;;;13.30;;
27792;SDS011;15174;48.190;11.462;2024-03-02T04:22:57;24.35;;;12.82;;
27792;SDS011;15174;48.190;11.462;2024-03-02T04:25:23;28.23;;;13.52;;
27792;SDS011;15174;48.190;11.462;2024-03-02T04:27:49;26.67;;;14.48;;
27792;SDS011;15174;48.190;11.462;2024-03-02T04:30:15;25.42;;;13.27;;
27792;SDS011;15174;48.190;11.462;2024-03-02T04:32:42;23.77;;;12.85;;
27792;SDS011;15174;48.190;11.462;2024-03-02T04:35:11;24.23;;;13.18;;
27792;SDS011;15174;48.190;11.462;2024-03-02T04:37:38;21.42;;;12.00;;
27792;SDS011;15174;48.190;11.462;2024-03-02T04:40:05;27.73;;;14.13;;
27792;SDS011;15174;48.190;11.462;2024-03-02T04:42:33;25.70;;;13.18;;
27792;SDS011;15174;48.190;11.462;2024-03-02T04:44:59;23.17;;;13.63;;
27792;SDS011;15174;48.190;11.462;2024-03-02T04:47:25;25.65;;;13.77;;
27792;SDS011;15174;48.190;11.462;2024-03-02T04:49:51;27.05;;;14.55;;
27792;SDS011;15174;48.190;11.462;2024-03-02T04:52:17;23.73;;;13.10;;
27792;SDS011;15174;48.190;11.462;2024-03-02T04:54:43;24.83;;;13.82;;
27792;SDS011;15174;48.190;11.462;2024-03-02T04:57:28;24.48;;;13.95;;
27792;SDS011;15174;48.190;11.462;2024-03-02T04:59:54;27.92;;;12.80;;
27792;SDS011;15174;48.190;11.462;2024-03-02T05:02:20;27.27;;;15.27;;
27792;SDS011;15174;48.190;11.462;2024-03-02T05:04:46;24.27;;;13.50;;
27792;SDS011;15174;48.190;11.462;2024-03-02T05:07:14;25.08;;;13.45;;
27792;SDS011;15174;48.190;11.462;2024-03-02T05:09:40;24.27;;;13.48;;
27792;SDS011;15174;48.190;11.462;2024-03-02T05:12:07;24.00;;;13.45;;
27792;SDS011;15174;48.190;11.462;2024-03-02T05:15:06;25.23;;;13.20;;
27792;SDS011;15174;48.190;11.462;2024-03-02T05:17:32;23.95;;;12.77;;
27792;SDS011;15174;48.190;11.462;2024-03-02T05:19:58;24.27;;;12.88;;
27792;SDS011;15174;48.190;11.462;2024-03-02T05:22:24;24.65;;;13.90;;
27792;SDS011;15174;48.190;11.462;2024-03-02T05:24:50;24.48;;;13.07;;
27792;SDS011;15174;48.190;11.462;2024-03-02T05:27:16;24.88;;;13.50;;
27792;SDS011;15174;48.190;11.462;2024-03-02T05:29:42;23.65;;;14.27;;
27792;SDS011;15174;48.190;11.462;2024-03-02T05:32:09;25.48;;;13.63;;
27792;SDS011;15174;48.190;11.462;2024-03-02T05:34:35;24.00;;;12.85;;
27792;SDS011;15174;48.190;11.462;2024-03-02T05:37:01;26.50;;;13.07;;
27792;SDS011;15174;48.190;11.462;2024-03-02T05:39:27;24.50;;;13.13;;
27792;SDS011;15174;48.190;11.462;2024-03-02T05:41:53;24.73;;;13.27;;
27792;SDS011;15174;48.190;11.462;2024-03-02T05:44:19;21.02;;;11.95;;
27792;SDS011;15174;48.190;11.462;2024-03-02T05:46:45;30.83;;;15.38;;
27792;SDS011;15174;48.190;11.462;2024-03-02T05:49:11;30.27;;;14.68;;
27792;SDS011;15174;48.190;11.462;2024-03-02T05:51:38;24.85;;;13.07;;
27792;SDS011;15174;48.190;11.462;2024-03-02T05:54:04;26.17;;;13.90;;
27792;SDS011;15174;48.190;11.462;2024-03-02T05:56:30;26.88;;;14.80;;
27792;SDS011;15174;48.190;11.462;2024-03-02T05:58:56;27.83;;;14.55;;
27792;SDS011;15174;48.190;11.462;2024-03-02T06:01:43;24.75;;;14.00;;
27792;SDS011;15174;48.190;11.462;2024-03-02T06:04:09;26.25;;;13.70;;
27792;SDS011;15174;48.190;11.462;2024-03-02T06:06:36;26.80;;;14.35;;
27792;SDS011;15174;48.190;11.462;2024-03-02T06:09:02;22.67;;;13.88;;
27792;SDS011;15174;48.190;11.462;2024-03-02T06:11:38;29.63;;;14.95;;
27792;SDS011;15174;48.190;11.462;2024-03-02T06:14:05;26.85;;;13.95;;
27792;SDS011;15174;48.190;11.462;2024-03-02T06:16:31;24.83;;;13.95;;
27792;SDS011;15174;48.190;11.462;2024-03-02T06:18:58;34.08;;;15.93;;
27792;SDS011;15174;48.190;11.462;2024-03-02T06:21:24;67.22;;;28.58;;
27792;SDS011;15174;48.190;11.462;2024-03-02T06:23:50;38.10;;;18.00;;
27792;SDS011;15174;48.190;11.462;2024-03-02T06:26:16;30.45;;;16.20;;
27792;SDS011;15174;48.190;11.462;2024-03-02T06:28:43;31.83;;;14.75;;
27792;SDS011;15174;48.190;11.462;2024-03-02T06:31:09;27.52;;;15.38;;
27792;SDS011;15174;48.190;11.462;2024-03-02T06:33:36;35.40;;;17.08;;
27792;SDS011;15174;48.190;11.462;2024-03-02T06:36:02;46.25;;;20.83;;
27792;SDS011;15174;48.190;11.462;2024-03-02T06:38:28;33.47;;;17.50;;
27792;SDS011;15174;48.190;11.462;2024-03-02T06:40:54;32.05;;;16.27;;
27792;SDS011;15174;48.190;11.462;2024-03-02T06:43:20;33.78;;;16.60;;
27792;SDS011;15174;48.190;11.462;2024-03-02T06:45:50;33.90;;;17.52;;
27792;SDS011;15174;48.190;11.462;2024-03-02T06:48:19;29.42;;;14.65;;
27792;SDS011;15174;48.190;11.462;2024-03-02T06:50:46;32.05;;;16.30;;
27792;SDS011;15174;48.190;11.462;2024-03-02T06:53:12;30.40;;;17.57;;
27792;SDS011;15174;48.190;11.462;2024-03-02T06:55:38;28.83;;;15.63;;
27792;SDS011;15174;48.190;11.462;2024-03-02T06:58:05;28.70;;;15.45;;
27792;SDS011;15174;48.190;11.462;2024-03-02T07:00:31;30.42;;;15.77;;
27792;SDS011;15174;48.190;11.462;2024-03-02T07:02:57;28.15;;;14.43;;
27792;SDS011;15174;48.190;11.462;2024-03-02T07:05:23;30.10;;;16.42;;
27792;SDS011;15174;48.190;11.462;2024-03-02T07:07:49;34.00;;;17.40;;
27792;SDS011;15174;48.190;11.462;2024-03-02T07:10:15;34.83;;;17.77;;
27792;SDS011;15174;48.190;11.462;2024-03-02T07:12:41;31.42;;;16.70;;
27792;SDS011;15174;48.190;11.462;2024-03-02T07:15:07;30.35;;;16.48;;
27792;SDS011;15174;48.190;11.462;2024-03-02T07:17:46;30.58;;;17.30;;
27792;SDS011;15174;48.190;11.462;2024-03-02T07:20:12;33.28;;;17.40;;
27792;SDS011;15174;48.190;11.462;2024-03-02T07:22:38;34.13;;;16.02;;
27792;SDS011;15174;48.190;11.462;2024-03-02T07:25:05;28.73;;;15.70;;
27792;SDS011;15174;48.190;11.462;2024-03-02T07:27:32;30.25;;;16.23;;
27792;SDS011;15174;48.190;11.462;2024-03-02T07:30:00;31.45;;;16.52;;
27792;SDS011;15174;48.190;11.462;2024-03-02T07:32:26;31.45;;;16.88;;
27792;SDS011;15174;48.190;11.462;2024-03-02T07:34:52;24.52;;;13.35;;
27792;SDS011;15174;48.190;11.462;2024-03-02T07:37:18;19.13;;;11.30;;
27792;SDS011;15174;48.190;11.462;2024-03-02T07:39:45;25.00;;;10.68;;
27792;SDS011;15174;48.190;11.462;2024-03-02T07:42:11;14.75;;;9.02;;
27792;SDS011;15174;48.190;11.462;2024-03-02T07:44:37;16.88;;;8.68;;
27792;SDS011;15174;48.190;11.462;2024-03-02T07:47:03;12.52;;;8.00;;
27792;SDS011;15174;48.190;11.462;2024-03-02T07:49:29;13.18;;;8.20;;
27792;SDS011;15174;48.190;11.462;2024-03-02T07:51:55;15.13;;;8.57;;
27792;SDS011;15174;48.190;11.462;2024-03-02T07:54:21;9.50;;;6.53;;
27792;SDS011;15174;48.190;11.462;2024-03-02T07:56:47;11.02;;;7.72;;
27792;SDS011;15174;48.190;11.462;2024-03-02T07:59:13;13.15;;;8.20;;
27792;SDS011;15174;48.190;11.462;2024-03-02T08:01:39;12.00;;;8.02;;
27792;SDS011;15174;48.190;11.462;2024-03-02T08:04:06;12.80;;;8.13;;
27792;SDS011;15174;48.190;11.462;2024-03-02T08:06:32;11.98;;;8.43;;
27792;SDS011;15174;48.190;11.462;2024-03-02T08:08:58;13.45;;;8.63;;
27792;SDS011;15174;48.190;11.462;2024-03-02T08:11:25;13.43;;;8.77;;
27792;SDS011;15174;48.190;11.462;2024-03-02T08:13:52;12.18;;;8.32;;
27792;SDS011;15174;48.190;11.462;2024-03-02T08:16:21;15.82;;;9.57;;
27792;SDS011;15174;48.190;11.462;2024-03-02T08:18:48;13.98;;;8.85;;
27792;SDS011;15174;48.190;11.462;2024-03-02T08:21:15;17.88;;;9.05;;
27792;SDS011;15174;48.190;11.462;2024-03-02T08:23:41;13.85;;;8.40;;
27792;SDS011;15174;48.190;11.462;2024-03-02T08:26:08;13.35;;;8.10;;
27792;SDS011;15174;48.190;11.462;2024-03-02T08:28:34;13.88;;;7.88;;
27792;SDS011;15174;48.190;11.462;2024-03-02T08:33:28;12.45;;;7.75;;
27792;SDS011;15174;48.190;11.462;2024-03-02T08:35:54;12.23;;;6.97;;
27792;SDS011;15174;48.190;11.462;2024-03-02T08:38:20;12.48;;;7.55;;
27792;SDS011;15174;48.190;11.462;2024-03-02T08:40:46;15.27;;;7.78;;
27792;SDS011;15174;48.190;11.462;2024-03-02T08:43:12;11.60;;;7.50;;
27792;SDS011;15174;48.190;11.462;2024-03-02T08:45:40;12.05;;;7.70;;
27792;SDS011;15174;48.190;11.462;2024-03-02T08:48:09;10.32;;;7.20;;
27792;SDS011;15174;48.190;11.462;2024-03-02T08:50:36;12.93;;;8.77;;
27792;SDS011;15174;48.190;11.462;2024-03-02T08:53:03;12.60;;;7.95;;
27792;SDS011;15174;48.190;11.462;2024-03-02T08:55:34;14.77;;;8.70;;
27792;SDS011;15174;48.190;11.462;2024-03-02T08:58:00;11.57;;;7.65;;
27792;SDS011;15174;48.190;11.462;2024-03-02T09:00:27;12.90;;;8.10;;
27792;SDS011;15174;48.190;11.462;2024-03-02T09:02:53;13.85;;;8.23;;
27792;SDS011;15174;48.190;11.462;2024-03-02T09:05:19;17.55;;;7.90;;
27792;SDS011;15174;48.190;11.462;2024-03-02T09:07:45;13.50;;;8.02;;
27792;SDS011;15174;48.190;11.462;2024-03-02T09:10:11;14.38;;;8.20;;
27792;SDS011;15174;48.190;11.462;2024-03-02T09:12:37;14.88;;;9.02;;
27792;SDS011;15174;48.190;11.462;2024-03-02T09:15:04;11.15;;;7.93;;
27792;SDS011;15174;48.190;11.462;2024-03-02T09:17:34;16.35;;;9.57;;
27792;SDS011;15174;48.190;11.462;2024-03-02T09:20:00;16.90;;;9.30;;
27792;SDS011;15174;48.190;11.462;2024-03-02T09:22:26;16.38;;;9.13;;
27792;SDS011;15174;48.190;11.462;2024-03-02T09:24:55;12.73;;;8.32;;
27792;SDS011;15174;48.190;11.462;2024-03-02T09:27:21;14.52;;;8.20;;
27792;SDS011;15174;48.190;11.462;2024-03-02T09:29:47;14.82;;;8.65;;
27792;SDS011;15174;48.190;11.462;2024-03-02T09:32:13;14.25;;;8.85;;
27792;SDS011;15174;48.190;11.462;2024-03-02T09:34:40;12.93;;;8.18;;
27792;SDS011;15174;48.190;11.462;2024-03-02T09:37:06;13.60;;;8.02;;
27792;SDS011;15174;48.190;11.462;2024-03-02T09:39:32;16.30;;;9.38;;
27792;SDS011;15174;48.190;11.462;2024-03-02T09:41:58;15.45;;;8.38;;
27792;SDS011;15174;48.190;11.462;2024-03-02T09:44:25;13.55;;;8.05;;
27792;SDS011;15174;48.190;11.462;2024-03-02T09:46:52;11.43;;;7.15;;
27792;SDS011;15174;48.190;11.462;2024-03-02T09:49:18;11.40;;;7.05;;
27792;SDS011;15174;48.190;11.462;2024-03-02T09:51:46;16.05;;;8.70;;
27792;SDS011;15174;48.190;11.462;2024-03-02T09:54:12;16.13;;;8.38;;
27792;SDS011;15174;48.190;11.462;2024-03-02T09:56:39;17.35;;;8.95;;
27792;SDS011;15174;48.190;11.462;2024-03-02T09:59:05;14.05;;;7.85;;
27792;SDS011;15174;48.190;11.462;2024-03-02T10:01:31;15.43;;;8.07;;
27792;SDS011;15174;48.190;11.462;2024-03-02T10:04:00;15.68;;;8.10;;
27792;SDS011;15174;48.190;11.462;2024-03-02T10:06:28;14.90;;;8.45;;
27792;SDS011;15174;48.190;11.462;2024-03-02T10:08:54;18.40;;;10.02;;
27792;SDS011;15174;48.190;11.462;2024-03-02T10:16:42;15.40;;;9.10;;
27792;SDS011;15174;48.190;11.462;2024-03-02T10:19:22;15.65;;;8.98;;
27792;SDS011;15174;48.190;11.462;2024-03-02T10:21:51;13.80;;;8.25;;
27792;SDS011;15174;48.190;11.462;2024-03-02T10:24:18;16.92;;;8.93;;
27792;SDS011;15174;48.190;11.462;2024-03-02T10:26:44;16.42;;;8.38;;
27792;SDS011;15174;48.190;11.462;2024-03-02T10:29:10;17.17;;;8.25;;
27792;SDS011;15174;48.190;11.462;2024-03-02T10:31:37;23.00;;;7.63;;
27792;SDS011;15174;48.190;11.462;2024-03-02T10:34:03;13.27;;;8.48;;
27792;SDS011;15174;48.190;11.462;2024-03-02T10:36:29;14.60;;;7.85;;
27792;SDS011;15174;48.190;11.462;2024-03-02T10:38:56;14.98;;;7.22;;
27792;SDS011;15174;48.190;11.462;2024-03-02T10:41:24;17.30;;;8.00;;
27792;SDS011;15174;48.190;11.462;2024-03-02T10:43:52;18.63;;;8.13;;
27792;SDS011;15174;48.190;11.462;2024-03-02T10:46:28;20.33;;;8.73;;
27792;SDS011;15174;48.190;11.462;2024-03-02T10:48:55;17.13;;;9.13;;
27792;SDS011;15174;48.190;11.462;2024-03-02T10:51:21;23.40;;;10.07;;
27792;SDS011;15174;48.190;11.462;2024-03-02T10:53:47;23.55;;;8.23;;
27792;SDS011;15174;48.190;11.462;2024-03-02T10:56:15;16.45;;;8.40;;
27792;SDS011;15174;48.190;11.462;2024-03-02T10:58:42;14.88;;;8.43;;
27792;SDS011;15174;48.190;11.462;2024-03-02T11:01:08;15.02;;;7.68;;
27792;SDS011;15174;48.190;11.462;2024-03-02T11:03:35;13.88;;;7.35;;
27792;SDS011;15174;48.190;11.462;2024-03-02T11:06:03;18.35;;;8.00;;
27792;SDS011;15174;48.190;11.462;2024-03-02T11:08:31;16.98;;;7.90;;
27792;SDS011;15174;48.190;11.462;2024-03-02T11:11:02;16.25;;;7.88;;
27792;SDS011;15174;48.190;11.462;2024-03-02T11:13:32;25.52;;;9.05;;
27792;SDS011;15174;48.190;11.462;2024-03-02T11:15:59;18.92;;;7.13;;
27792;SDS011;15174;48.190;11.462;2024-03-02T11:18:29;17.98;;;7.53;;
27792;SDS011;15174;48.190;11.462;2024-03-02T11:20:56;20.45;;;8.95;;
27792;SDS011;15174;48.190;11.462;2024-03-02T11:23:31;17.20;;;8.25;;
27792;SDS011;15174;48.190;11.462;2024-03-02T11:28:44;28.70;;;10.27;;
27792;SDS011;15174;48.190;11.462;2024-03-02T11:31:10;22.02;;;10.23;;
27792;SDS011;15174;48.190;11.462;2024-03-02T11:33:36;43.67;;;9.48;;
27792;SDS011;15174;48.190;11.462;2024-03-02T11:36:02;18.95;;;9.27;;
27792;SDS011;15174;48.190;11.462;2024-03-02T11:38:30;27.37;;;10.93;;
27792;SDS011;15174;48.190;11.462;2024-03-02T11:40:58;23.52;;;10.38;;
27792;SDS011;15174;48.190;11.462;2024-03-02T11:43:25;24.42;;;10.48;;
27792;SDS011;15174;48.190;11.462;2024-03-02T11:46:03;27.67;;;10.20;;
27792;SDS011;15174;48.190;11.462;2024-03-02T11:48:32;26.75;;;10.57;;
27792;SDS011;15174;48.190;11.462;2024-03-02T11:50:58;18.50;;;9.90;;
27792;SDS011;15174;48.190;11.462;2024-03-02T11:53:25;22.95;;;9.55;;
27792;SDS011;15174;48.190;11.462;2024-03-02T11:55:54;22.40;;;11.07;;
27792;SDS011;15174;48.190;11.462;2024-03-02T11:58:20;29.05;;;10.73;;
27792;SDS011;15174;48.190;11.462;2024-03-02T12:00:54;21.65;;;10.57;;
27792;SDS011;15174;48.190;11.462;2024-03-02T12:03:24;26.00;;;11.68;;
27792;SDS011;15174;48.190;11.462;2024-03-02T12:05:51;22.58;;;11.32;;
27792;SDS011;15174;48.190;11.462;2024-03-02T12:08:18;21.03;;;10.93;;
27792;SDS011;15174;48.190;11.462;2024-03-02T12:10:55;29.50;;;12.00;;
27792;SDS011;15174;48.190;11.462;2024-03-02T12:13:21;31.50;;;12.13;;
27792;SDS011;15174;48.190;11.462;2024-03-02T12:15:47;29.85;;;12.93;;
27792;SDS011;15174;48.190;11.462;2024-03-02T12:18:13;23.80;;;11.75;;
27792;SDS011;15174;48.190;11.462;2024-03-02T12:20:39;23.83;;;11.25;;
27792;SDS011;15174;48.190;11.462;2024-03-02T12:23:05;24.75;;;11.57;;
27792;SDS011;15174;48.190;11.462;2024-03-02T12:25:32;28.60;;;11.02;;
27792;SDS011;15174;48.190;11.462;2024-03-02T12:27:59;24.65;;;11.00;;
27792;SDS011;15174;48.190;11.462;2024-03-02T12:30:27;24.27;;;11.00;;
27792;SDS011;15174;48.190;11.462;2024-03-02T12:32:53;27.95;;;12.25;;
27792;SDS011;15174;48.190;11.462;2024-03-02T12:35:19;22.73;;;11.70;;
27792;SDS011;15174;48.190;11.462;2024-03-02T12:37:49;31.73;;;12.65;;
27792;SDS011;15174;48.190;11.462;2024-03-02T12:40:16;27.65;;;10.88;;
27792;SDS011;15174;48.190;11.462;2024-03-02T12:42:43;24.70;;;11.35;;
27792;SDS011;15174;48.190;11.462;2024-03-02T12:45:10;26.35;;;11.18;;
27792;SDS011;15174;48.190;11.462;2024-03-02T12:47:36;27.50;;;9.73;;
27792;SDS011;15174;48.190;11.462;2024-03-02T12:50:03;23.27;;;10.10;;
27792;SDS011;15174;48.190;11.462;2024-03-02T12:52:29;24.33;;;9.50;;
27792;SDS011;15174;48.190;11.462;2024-03-02T12:54:57;24.08;;;10.63;;
27792;SDS011;15174;48.190;11.462;2024-03-02T12:57:27;23.85;;;10.95;;
27792;SDS011;15174;48.190;11.462;2024-03-02T12:59:57;44.05;;;11.60;;
27792;SDS011;15174;48.190;11.462;2024-03-02T13:02:23;22.77;;;9.90;;
27792;SDS011;15174;48.190;11.462;2024-03-02T13:04:52;20.85;;;11.07;;
27792;SDS011;15174;48.190;11.462;2024-03-02T13:07:19;23.20;;;11.27;;
27792;SDS011;15174;48.190;11.462;2024-03-02T13:12:14;23.58;;;10.45;;
27792;SDS011;15174;48.190;11.462;2024-03-02T13:17:10;28.30;;;10.60;;
27792;SDS011;15174;48.190;11.462;2024-03-02T13:19:36;21.90;;;10.68;;
27792;SDS011;15174;48.190;11.462;2024-03-02T13:22:02;28.80;;;11.10;;
27792;SDS011;15174;48.190;11.462;2024-03-02T13:24:29;23.02;;;9.48;;
27792;SDS011;15174;48.190;11.462;2024-03-02T13:26:55;27.30;;;10.77;;
27792;SDS011;15174;48.190;11.462;2024-03-02T13:29:23;25.83;;;11.70;;
27792;SDS011;15174;48.190;11.462;2024-03-02T13:31:49;20.33;;;11.02;;
27792;SDS011;15174;48.190;11.462;2024-03-02T13:34:16;22.60;;;10.88;;
27792;SDS011;15174;48.190;11.462;2024-03-02T13:36:42;28.30;;;12.55;;
27792;SDS011;15174;48.190;11.462;2024-03-02T13:39:08;23.33;;;12.10;;
27792;SDS011;15174;48.190;11.462;2024-03-02T13:41:35;25.02;;;12.57;;
27792;SDS011;15174;48.190;11.462;2024-03-02T13:44:02;27.88;;;12.63;;
27792;SDS011;15174;48.190;11.462;2024-03-02T13:46:28;22.15;;;12.18;;
27792;SDS011;15174;48.190;11.462;2024-03-02T13:48:54;24.65;;;10.85;;
27792;SDS011;15174;48.190;11.462;2024-03-02T13:51:23;22.27;;;11.07;;
27792;SDS011;15174;48.190;11.462;2024-03-02T13:53:50;23.80;;;9.90;;
27792;SDS011;15174;48.190;11.462;2024-03-02T13:56:16;19.50;;;9.93;;
27792;SDS011;15174;48.190;11.462;2024-03-02T13:58:42;15.75;;;8.30;;
27792;SDS011;15174;48.190;11.462;2024-03-02T14:01:11;28.90;;;10.23;;
27792;SDS011;15174;48.190;11.462;2024-03-02T14:03:37;21.27;;;10.18;;
27792;SDS011;15174;48.190;11.462;2024-03-02T14:06:03;32.15;;;10.45;;
27792;SDS011;15174;48.190;11.462;2024-03-02T14:08:29;21.50;;;10.80;;
27792;SDS011;15174;48.190;11.462;2024-03-02T14:10:59;24.45;;;11.80;;
27792;SDS011;15174;48.190;11.462;2024-03-02T14:13:25;41.97;;;12.43;;
27792;SDS011;15174;48.190;11.462;2024-03-02T14:15:51;30.73;;;11.18;;
27792;SDS011;15174;48.190;11.462;2024-03-02T14:18:17;22.48;;;10.15;;
27792;SDS011;15174;48.190;11.462;2024-03-02T14:20:43;19.90;;;10.10;;
27792;SDS011;15174;48.190;11.462;2024-03-02T14:23:09;24.73;;;10.10;;
27792;SDS011;15174;48.190;11.462;2024-03-02T14:25:35;19.88;;;10.57;;
27792;SDS011;15174;48.190;11.462;2024-03-02T14:28:03;29.25;;;11.63;;
27792;SDS011;15174;48.190;11.462;2024-03-02T14:30:29;17.55;;;7.80;;
27792;SDS011;15174;48.190;11.462;2024-03-02T14:32:55;23.70;;;8.68;;
27792;SDS011;15174;48.190;11.462;2024-03-02T14:35:21;16.45;;;8.20;;
27792;SDS011;15174;48.190;11.462;2024-03-02T14:37:47;21.25;;;8.73;;